createdAt,value
2022-11-30T00:02:41.580Z,6.40
2022-11-30T00:05:44.723Z,6.50
2022-11-30T00:08:49.023Z,6.60
2022-11-30T00:11:51.950Z,6.60
2022-11-30T00:14:54.862Z,6.60
2022-11-30T00:17:58.432Z,6.60
2022-11-30T00:21:02.228Z,6.50
2022-11-30T00:24:07.916Z,6.40
2022-11-30T00:27:10.869Z,6.50
2022-11-30T00:30:15.235Z,6.50
2022-11-30T00:33:18.202Z,6.50
2022-11-30T00:36:22.889Z,6.50
2022-11-30T00:39:31.061Z,6.60
2022-11-30T00:42:38.178Z,6.40
2022-11-30T00:45:42.030Z,6.50
2022-11-30T00:48:45.102Z,6.40
2022-11-30T00:51:48.054Z,6.50
2022-11-30T00:54:52.332Z,6.40
2022-11-30T00:57:55.266Z,6.40
2022-11-30T01:00:58.268Z,6.30
2022-11-30T01:04:01.204Z,6.30
2022-11-30T01:07:04.190Z,6.30
2022-11-30T01:10:09.845Z,6.40
2022-11-30T01:13:13.732Z,6.40
2022-11-30T01:16:19.670Z,6.50
2022-11-30T01:19:22.928Z,6.50
2022-11-30T01:22:25.855Z,6.50
2022-11-30T01:25:30.092Z,6.50
2022-11-30T01:28:33.365Z,6.30
2022-11-30T01:31:36.891Z,6.30
2022-11-30T01:34:39.823Z,6.40
2022-11-30T01:37:42.812Z,6.50
2022-11-30T01:40:52.036Z,6.40
2022-11-30T01:43:57.466Z,6.40
2022-11-30T01:47:02.919Z,6.50
2022-11-30T01:50:10.269Z,6.40
2022-11-30T01:53:14.069Z,6.40
2022-11-30T01:56:19.054Z,6.40
2022-11-30T01:59:23.714Z,6.40
2022-11-30T02:02:33.681Z,6.30
2022-11-30T02:05:38.830Z,6.50
2022-11-30T02:08:42.010Z,6.40
2022-11-30T02:11:46.717Z,6.40
2022-11-30T02:14:54.457Z,6.30
2022-11-30T02:18:03.780Z,6.30
2022-11-30T02:21:14.806Z,6.40
2022-11-30T02:24:37.712Z,6.40
2022-11-30T02:27:55.265Z,6.30
2022-11-30T02:31:03.022Z,6.30
2022-11-30T02:34:08.205Z,6.40
2022-11-30T02:37:14.772Z,6.40
2022-11-30T02:40:21.377Z,6.40
2022-11-30T02:43:27.207Z,6.50
2022-11-30T02:46:39.082Z,6.40
2022-11-30T02:49:49.292Z,6.40
2022-11-30T02:52:53.079Z,6.30
2022-11-30T02:55:56.040Z,6.40
2022-11-30T02:58:59.031Z,6.30
2022-11-30T03:02:03.277Z,6.30
2022-11-30T03:05:06.995Z,6.30
2022-11-30T03:08:10.444Z,6.10
2022-11-30T03:11:13.427Z,6.20
2022-11-30T03:14:16.391Z,6.30
2022-11-30T03:17:20.661Z,6.30
2022-11-30T03:20:23.599Z,6.30
2022-11-30T03:23:26.523Z,6.30
2022-11-30T03:26:29.449Z,6.40
2022-11-30T03:29:32.390Z,6.40
2022-11-30T03:32:36.730Z,6.40
2022-11-30T03:35:39.648Z,6.30
2022-11-30T03:38:42.597Z,6.20
2022-11-30T03:41:45.500Z,6.30
2022-11-30T03:44:48.693Z,6.30
2022-11-30T03:47:53.232Z,6.40
2022-11-30T03:50:56.179Z,6.40
2022-11-30T03:53:59.232Z,6.40
2022-11-30T03:57:02.160Z,6.40
2022-11-30T04:00:06.942Z,6.40
2022-11-30T04:03:11.535Z,6.40
2022-11-30T04:06:14.713Z,6.50
2022-11-30T04:09:17.702Z,6.50
2022-11-30T04:12:20.705Z,6.50
2022-11-30T04:15:23.684Z,6.50
2022-11-30T04:18:32.188Z,6.50
2022-11-30T04:21:35.157Z,6.50
2022-11-30T04:24:38.075Z,6.50
2022-11-30T04:27:41.000Z,6.60
2022-11-30T04:30:45.664Z,6.50
2022-11-30T04:33:53.283Z,6.60
2022-11-30T04:37:00.236Z,6.60
2022-11-30T04:40:03.701Z,6.50
2022-11-30T04:43:06.755Z,6.50
2022-11-30T04:46:09.773Z,6.40
2022-11-30T04:49:14.085Z,6.40
2022-11-30T04:52:17.291Z,6.50
2022-11-30T04:55:20.271Z,6.50
2022-11-30T04:58:23.307Z,6.50
2022-11-30T05:01:26.305Z,6.50
2022-11-30T05:04:30.729Z,6.50
2022-11-30T05:07:33.809Z,6.50
2022-11-30T05:10:41.805Z,6.50
2022-11-30T05:13:44.784Z,6.50
2022-11-30T05:16:48.540Z,6.50
2022-11-30T05:19:52.887Z,6.40
2022-11-30T05:22:56.136Z,6.50
2022-11-30T05:25:59.094Z,6.40
2022-11-30T05:29:02.074Z,6.50
2022-11-30T05:32:05.111Z,6.50
2022-11-30T05:35:10.523Z,6.50
2022-11-30T05:38:13.464Z,6.40
2022-11-30T05:41:16.468Z,6.40
2022-11-30T05:44:19.408Z,6.40
2022-11-30T05:47:22.444Z,6.50
2022-11-30T05:50:26.751Z,6.50
2022-11-30T05:53:29.687Z,6.50
2022-11-30T05:56:32.779Z,6.40
2022-11-30T05:59:35.717Z,6.30
2022-11-30T06:02:38.745Z,6.40
2022-11-30T06:05:43.100Z,6.50
2022-11-30T06:08:46.923Z,6.50
2022-11-30T06:11:49.991Z,6.50
2022-11-30T06:14:53.028Z,6.40
2022-11-30T06:17:56.601Z,6.40
2022-11-30T06:21:03.522Z,6.40
2022-11-30T06:24:07.097Z,6.40
2022-11-30T06:27:10.058Z,6.50
2022-11-30T06:30:14.164Z,6.50
2022-11-30T06:33:17.139Z,6.40
2022-11-30T06:36:24.716Z,6.40
2022-11-30T06:39:57.885Z,6.50
2022-11-30T06:42:50.615Z,6.40
2022-11-30T06:45:53.642Z,6.40
2022-11-30T06:48:56.661Z,6.40
2022-11-30T06:52:01.717Z,6.40
2022-11-30T06:55:05.695Z,6.40
2022-11-30T06:58:09.735Z,6.40
2022-11-30T07:01:15.448Z,6.40
2022-11-30T07:04:18.751Z,6.40
2022-11-30T07:07:23.339Z,6.40
2022-11-30T07:10:27.148Z,6.50
2022-11-30T07:13:30.229Z,6.50
2022-11-30T07:16:33.444Z,6.50
2022-11-30T07:19:36.448Z,6.30
2022-11-30T07:22:40.738Z,6.40
2022-11-30T07:26:01.539Z,6.40
2022-11-30T07:29:05.394Z,6.40
2022-11-30T07:32:09.107Z,6.40
2022-11-30T07:35:12.108Z,6.50
2022-11-30T07:38:16.461Z,6.60
2022-11-30T07:41:19.652Z,6.60
2022-11-30T07:44:22.613Z,6.70
2022-11-30T07:47:25.582Z,6.60
2022-11-30T07:50:29.188Z,6.60
2022-11-30T07:53:33.757Z,6.50
2022-11-30T07:56:36.798Z,6.50
2022-11-30T07:59:39.757Z,6.60
2022-11-30T08:02:42.754Z,6.60
2022-11-30T08:05:45.707Z,6.50
2022-11-30T08:08:51.684Z,6.50
2022-11-30T08:11:54.679Z,6.40
2022-11-30T08:15:19.246Z,6.50
2022-11-30T08:18:20.892Z,6.50
2022-11-30T08:21:24.538Z,6.60
2022-11-30T08:24:28.851Z,6.50
2022-11-30T08:27:31.855Z,6.50
2022-11-30T08:30:35.015Z,6.60
2022-11-30T08:33:38.647Z,6.60
2022-11-30T08:36:42.033Z,6.60
2022-11-30T08:39:46.324Z,6.60
2022-11-30T08:42:49.300Z,6.60
2022-11-30T08:49:23.846Z,6.70
2022-11-30T08:52:28.103Z,6.70
2022-11-30T08:55:32.468Z,6.70
2022-11-30T08:58:37.172Z,6.70
2022-11-30T09:01:42.573Z,6.60
2022-11-30T09:04:45.576Z,6.70
2022-11-30T09:07:48.577Z,6.70
2022-11-30T09:10:52.957Z,6.70
2022-11-30T09:13:58.255Z,6.70
2022-11-30T09:17:01.272Z,6.70
2022-11-30T09:20:04.688Z,6.70
2022-11-30T09:23:07.645Z,6.70
2022-11-30T09:26:14.514Z,6.80
2022-11-30T09:29:17.517Z,6.80
2022-11-30T09:32:20.516Z,6.70
2022-11-30T09:35:23.436Z,6.70
2022-11-30T09:38:26.962Z,6.70
2022-11-30T09:41:53.856Z,6.80
2022-11-30T09:45:03.267Z,6.80
2022-11-30T09:48:31.855Z,6.70
2022-11-30T09:51:44.108Z,6.70
2022-11-30T09:54:48.552Z,6.80
2022-11-30T09:57:55.008Z,6.70
2022-11-30T10:00:59.594Z,6.80
2022-11-30T10:04:05.519Z,6.90
2022-11-30T10:07:20.145Z,6.80
2022-11-30T10:10:34.312Z,6.80
2022-11-30T10:13:52.849Z,6.90
2022-11-30T10:17:02.369Z,7.00
2022-11-30T10:20:19.228Z,7.00
2022-11-30T10:23:45.962Z,7.00
2022-11-30T10:26:55.139Z,6.90
2022-11-30T10:30:02.513Z,6.90
2022-11-30T10:33:14.669Z,7.00
2022-11-30T10:36:28.656Z,6.90
2022-11-30T10:39:35.642Z,6.80
2022-11-30T10:42:44.627Z,6.90
2022-11-30T10:45:51.022Z,7.00
2022-11-30T10:48:59.293Z,7.00
2022-11-30T10:52:06.848Z,7.00
2022-11-30T10:55:15.889Z,7.00
2022-11-30T10:58:24.103Z,7.00
2022-11-30T11:01:34.840Z,6.90
2022-11-30T11:04:37.921Z,7.00
2022-11-30T11:07:49.052Z,7.00
2022-11-30T11:10:52.315Z,6.90
2022-11-30T11:14:10.327Z,6.90
2022-11-30T11:17:26.272Z,6.90
2022-11-30T11:20:33.612Z,6.80
2022-11-30T11:23:38.865Z,6.80
2022-11-30T11:26:50.392Z,6.80
2022-11-30T11:30:02.441Z,6.90
2022-11-30T11:33:20.378Z,6.90
2022-11-30T11:36:28.188Z,6.80
2022-11-30T11:39:31.187Z,6.90
2022-11-30T11:42:38.370Z,6.80
2022-11-30T11:45:41.396Z,6.80
2022-11-30T11:48:57.412Z,6.90
2022-11-30T11:52:02.248Z,6.80
2022-11-30T11:55:09.692Z,6.80
2022-11-30T11:58:19.876Z,6.80
2022-11-30T12:01:42.349Z,6.80
2022-11-30T12:04:49.165Z,6.90
2022-11-30T12:08:03.665Z,7.00
2022-11-30T12:11:13.118Z,7.00
2022-11-30T12:14:18.655Z,7.00
2022-11-30T12:17:34.257Z,7.00
2022-11-30T12:20:53.581Z,7.00
2022-11-30T12:24:15.673Z,6.90
2022-11-30T12:27:30.399Z,7.00
2022-11-30T12:30:45.204Z,6.90
2022-11-30T12:34:02.423Z,6.90
2022-11-30T12:37:14.515Z,6.90
2022-11-30T12:40:28.084Z,6.90
2022-11-30T12:43:43.728Z,6.80
2022-11-30T12:46:53.178Z,6.80
2022-11-30T12:50:21.305Z,6.80
2022-11-30T12:53:33.068Z,6.80
2022-11-30T12:56:46.153Z,6.80
2022-11-30T12:59:59.079Z,6.90
2022-11-30T13:03:27.411Z,6.90
2022-11-30T13:06:34.086Z,6.90
2022-11-30T13:09:42.428Z,6.80
2022-11-30T13:12:50.141Z,6.80
2022-11-30T13:15:53.675Z,6.90
2022-11-30T13:19:02.577Z,6.90
2022-11-30T13:22:10.369Z,6.90
2022-11-30T13:25:59.716Z,6.70
2022-11-30T13:29:04.800Z,6.80
2022-11-30T13:32:33.943Z,6.80
2022-11-30T13:35:45.337Z,6.80
2022-11-30T13:38:48.631Z,6.80
2022-11-30T13:42:15.950Z,6.70
2022-11-30T13:45:31.873Z,6.80
2022-11-30T13:48:38.564Z,6.80
2022-11-30T13:51:42.216Z,6.70
2022-11-30T13:54:47.371Z,6.80
2022-11-30T13:58:09.371Z,6.80
2022-11-30T14:01:25.292Z,6.60
2022-11-30T14:04:33.015Z,6.60
2022-11-30T14:07:38.407Z,6.70
2022-11-30T14:10:42.841Z,6.70
2022-11-30T14:13:47.177Z,6.70
2022-11-30T14:16:50.455Z,6.70
2022-11-30T14:19:58.786Z,6.70
2022-11-30T14:23:05.864Z,6.70
2022-11-30T14:26:11.650Z,6.80
2022-11-30T14:29:20.248Z,6.70
2022-11-30T14:32:34.970Z,6.70
2022-11-30T14:35:40.483Z,6.60
2022-11-30T14:38:44.198Z,6.60
2022-11-30T14:41:47.160Z,6.70
2022-11-30T14:44:52.012Z,6.70
2022-11-30T14:48:06.596Z,6.70
2022-11-30T14:51:13.037Z,6.70
2022-11-30T14:54:34.637Z,6.70
2022-11-30T14:57:43.689Z,6.50
2022-11-30T15:00:48.823Z,6.50
2022-11-30T15:03:54.210Z,6.50
2022-11-30T15:06:58.605Z,6.60
2022-11-30T15:10:06.358Z,6.60
2022-11-30T15:13:13.982Z,6.60
2022-11-30T15:16:21.868Z,6.60
2022-11-30T15:19:26.917Z,6.70
2022-11-30T15:22:35.217Z,6.70
2022-11-30T15:25:41.368Z,6.70
2022-11-30T15:28:48.507Z,6.70
2022-11-30T15:31:54.930Z,6.60
2022-11-30T15:35:00.818Z,6.60
2022-11-30T15:38:09.363Z,6.50
2022-11-30T15:41:20.796Z,6.50
2022-11-30T15:44:26.378Z,6.50
2022-11-30T15:47:39.182Z,6.50
2022-11-30T15:50:43.185Z,6.40
2022-11-30T15:53:50.964Z,6.30
2022-11-30T15:56:57.744Z,6.30
2022-11-30T16:00:07.311Z,6.30
2022-11-30T16:03:13.358Z,6.40
2022-11-30T16:06:20.127Z,6.40
2022-11-30T16:09:26.624Z,6.40
2022-11-30T16:12:30.871Z,6.40
2022-11-30T16:15:35.993Z,6.40
2022-11-30T16:18:40.461Z,6.50
2022-11-30T16:21:43.712Z,6.40
2022-11-30T16:24:46.664Z,6.40
2022-11-30T16:27:50.233Z,6.30
2022-11-30T16:30:57.518Z,6.20
2022-11-30T16:34:01.831Z,6.40
2022-11-30T16:37:05.018Z,6.40
2022-11-30T16:40:08.867Z,6.40
2022-11-30T16:43:12.406Z,6.40
2022-11-30T16:46:16.684Z,6.40
2022-11-30T16:49:21.986Z,6.50
2022-11-30T16:52:24.922Z,6.50
2022-11-30T16:55:31.793Z,6.40
2022-11-30T16:58:34.732Z,6.40
2022-11-30T17:01:41.691Z,6.50
2022-11-30T17:04:46.707Z,6.40
2022-11-30T17:07:50.162Z,6.40
2022-11-30T17:10:54.948Z,6.50
2022-11-30T17:13:58.301Z,6.50
2022-11-30T17:17:01.357Z,6.50
2022-11-30T17:20:07.042Z,6.40
2022-11-30T17:23:10.189Z,6.40
2022-11-30T17:26:13.967Z,6.40
2022-11-30T17:29:16.995Z,6.50
2022-11-30T17:32:19.931Z,6.40
2022-11-30T17:35:24.207Z,6.40
2022-11-30T17:38:27.377Z,6.50
2022-11-30T17:41:30.292Z,6.30
2022-11-30T17:44:34.038Z,6.20
2022-11-30T17:47:37.516Z,6.30
2022-11-30T17:50:41.839Z,6.50
2022-11-30T17:53:45.100Z,6.50
2022-11-30T17:56:48.093Z,6.40
2022-11-30T17:59:51.059Z,6.50
2022-11-30T18:02:54.419Z,6.50
2022-11-30T18:06:02.651Z,6.40
2022-11-30T18:09:05.931Z,6.40
2022-11-30T18:12:08.962Z,6.40
2022-11-30T18:15:12.467Z,6.40
2022-11-30T18:18:15.423Z,6.40
2022-11-30T18:21:21.731Z,6.40
2022-11-30T18:24:25.875Z,6.30
2022-11-30T18:27:28.988Z,6.30
2022-11-30T18:30:32.029Z,6.30
2022-11-30T18:33:35.155Z,6.20
2022-11-30T18:36:39.534Z,6.30
2022-11-30T18:39:42.589Z,6.30
2022-11-30T18:42:48.299Z,6.30
2022-11-30T18:45:51.349Z,6.30
2022-11-30T18:48:56.270Z,6.30
2022-11-30T18:52:00.634Z,6.30
2022-11-30T18:55:03.576Z,6.30
2022-11-30T18:58:06.641Z,6.40
2022-11-30T19:01:10.639Z,6.40
2022-11-30T19:04:13.729Z,6.20
2022-11-30T19:07:18.013Z,6.20
2022-11-30T19:10:21.080Z,6.20
2022-11-30T19:13:23.996Z,6.20
2022-11-30T19:16:28.941Z,6.30
2022-11-30T19:19:31.913Z,6.30
2022-11-30T19:22:36.192Z,6.20
2022-11-30T19:25:39.273Z,6.20
2022-11-30T19:28:43.481Z,6.20
2022-11-30T19:31:46.434Z,6.30
2022-11-30T19:34:49.995Z,6.20
2022-11-30T19:37:54.761Z,6.30
2022-11-30T19:40:58.712Z,6.20
2022-11-30T19:44:03.981Z,6.20
2022-11-30T19:47:07.574Z,6.30
2022-11-30T19:50:10.998Z,6.30
2022-11-30T19:53:15.274Z,6.10
2022-11-30T19:56:18.901Z,6.20
2022-11-30T19:59:22.024Z,6.20
2022-11-30T20:02:25.098Z,6.30
2022-11-30T20:05:28.106Z,6.20
2022-11-30T20:08:32.374Z,6.20
2022-11-30T20:11:37.122Z,6.30
2022-11-30T20:14:40.075Z,6.30
2022-11-30T20:17:43.018Z,6.30
2022-11-30T20:20:45.970Z,6.30
2022-11-30T20:23:51.021Z,6.20
2022-11-30T20:26:54.075Z,6.30
2022-11-30T20:29:57.184Z,6.30
2022-11-30T20:33:00.133Z,6.30
2022-11-30T20:36:04.168Z,6.30
2022-11-30T20:39:09.150Z,6.30
2022-11-30T20:42:12.137Z,6.40
2022-11-30T20:45:15.157Z,6.40
2022-11-30T20:48:18.097Z,6.40
2022-11-30T20:51:30.647Z,6.20
2022-11-30T20:54:35.785Z,6.20
2022-11-30T20:57:38.716Z,6.00
2022-11-30T21:00:41.657Z,6.20
2022-11-30T21:03:45.545Z,6.10
2022-11-30T21:06:48.817Z,6.10
2022-11-30T21:09:53.097Z,6.10
2022-11-30T21:12:57.846Z,6.10
2022-11-30T21:16:03.243Z,6.20
2022-11-30T21:19:06.498Z,6.20
2022-11-30T21:22:09.440Z,6.20
2022-11-30T21:25:13.698Z,6.10
2022-11-30T21:28:18.425Z,6.10
2022-11-30T21:31:22.576Z,6.10
2022-11-30T21:34:26.451Z,6.10
2022-11-30T21:37:31.116Z,6.20
2022-11-30T21:40:35.423Z,6.20
2022-11-30T21:43:38.689Z,6.20
2022-11-30T21:46:45.768Z,6.10
2022-11-30T21:49:48.851Z,6.10
2022-11-30T21:52:51.786Z,6.10
2022-11-30T21:55:56.198Z,6.10
2022-11-30T21:58:59.566Z,6.20
2022-11-30T22:02:02.502Z,6.20
2022-11-30T22:05:06.282Z,6.30
2022-11-30T22:08:09.250Z,6.20
2022-11-30T22:11:15.495Z,6.10
2022-11-30T22:14:18.537Z,6.20
2022-11-30T22:17:21.503Z,6.10
2022-11-30T22:20:24.430Z,6.10
2022-11-30T22:23:27.380Z,6.10
2022-11-30T22:26:33.709Z,6.10
2022-11-30T22:29:36.619Z,6.20
2022-11-30T22:32:43.376Z,6.20
2022-11-30T22:35:46.593Z,6.20
2022-11-30T22:38:54.792Z,6.20
2022-11-30T22:41:59.066Z,6.30
2022-11-30T22:45:02.020Z,6.10
2022-11-30T22:48:05.287Z,6.00
2022-11-30T22:51:10.956Z,6.10
2022-11-30T22:54:13.900Z,6.00
2022-11-30T22:57:18.197Z,6.10
2022-11-30T23:00:21.303Z,6.10
2022-11-30T23:03:26.410Z,6.10
2022-11-30T23:06:29.434Z,6.20
2022-11-30T23:09:32.360Z,6.10
2022-11-30T23:12:58.639Z,6.20
2022-11-30T23:16:00.192Z,6.20
2022-11-30T23:19:03.276Z,6.20
2022-11-30T23:22:06.287Z,6.20
2022-11-30T23:25:09.946Z,6.20
2022-11-30T23:28:14.232Z,6.20
2022-11-30T23:31:32.555Z,6.20
2022-11-30T23:34:38.311Z,6.20
2022-11-30T23:37:41.259Z,6.20
2022-11-30T23:40:44.181Z,6.20
2022-11-30T23:43:48.443Z,6.20
2022-11-30T23:46:51.436Z,6.20
2022-11-30T23:49:54.385Z,6.10
2022-11-30T23:52:57.306Z,6.20
2022-11-30T23:56:02.908Z,6.20
2022-11-30T23:59:07.221Z,6.20
